sensor_id;sensor_type;location;lat;lon;timestamp;pressure;altitude;pressure_sealevel;temperature;humidity
18533;BME280;9396;51.510;11.934;2022-11-18T00:01:31;98940.84;;;5.41;100.00
18533;BME280;9396;51.510;11.934;2022-11-18T00:03:58;98943.38;;;5.25;100.00
18533;BME280;9396;51.510;11.934;2022-11-18T00:06:27;98943.75;;;5.38;100.00
18533;BME280;9396;51.510;11.934;2022-11-18T00:08:54;98935.81;;;5.30;100.00
18533;BME280;9396;51.510;11.934;2022-11-18T00:11:22;98937.38;;;5.48;100.00
18533;BME280;9396;51.510;11.934;2022-11-18T00:14:04;98931.66;;;5.53;100.00
18533;BME280;9396;51.510;11.934;2022-11-18T00:16:48;98936.34;;;5.33;100.00
18533;BME280;9396;51.510;11.934;2022-11-18T00:19:15;98938.81;;;5.35;100.00
18533;BME280;9396;51.510;11.934;2022-11-18T00:21:43;98939.31;;;5.38;100.00
18533;BME280;9396;51.510;11.934;2022-11-18T00:24:10;98937.69;;;5.37;100.00
18533;BME280;9396;51.510;11.934;2022-11-18T00:26:37;98935.19;;;5.36;100.00
18533;BME280;9396;51.510;11.934;2022-11-18T00:29:03;98934.03;;;5.38;100.00
18533;BME280;9396;51.510;11.934;2022-11-18T00:31:30;98942.16;;;5.45;100.00
18533;BME280;9396;51.510;11.934;2022-11-18T00:33:57;98934.63;;;5.24;100.00
18533;BME280;9396;51.510;11.934;2022-11-18T00:36:23;98938.09;;;4.99;100.00
18533;BME280;9396;51.510;11.934;2022-11-18T00:38:51;98934.53;;;5.08;100.00
18533;BME280;9396;51.510;11.934;2022-11-18T00:41:18;98929.31;;;5.16;100.00
18533;BME280;9396;51.510;11.934;2022-11-18T00:43:45;98857.22;;;4.66;100.00
18533;BME280;9396;51.510;11.934;2022-11-18T00:46:12;98930.69;;;4.95;100.00
18533;BME280;9396;51.510;11.934;2022-11-18T00:48:39;98937.59;;;4.96;100.00
18533;BME280;9396;51.510;11.934;2022-11-18T00:51:07;98941.97;;;5.13;100.00
18533;BME280;9396;51.510;11.934;2022-11-18T00:53:34;98945.94;;;5.17;100.00
18533;BME280;9396;51.510;11.934;2022-11-18T00:56:02;98948.78;;;4.98;100.00
18533;BME280;9396;51.510;11.934;2022-11-18T00:58:29;98952.88;;;5.18;100.00
18533;BME280;9396;51.510;11.934;2022-11-18T01:00:55;98958.84;;;5.02;100.00
18533;BME280;9396;51.510;11.934;2022-11-18T01:03:22;98957.94;;;5.11;100.00
18533;BME280;9396;51.510;11.934;2022-11-18T01:05:50;98955.88;;;5.23;100.00
18533;BME280;9396;51.510;11.934;2022-11-18T01:08:17;98952.25;;;5.24;100.00
18533;BME280;9396;51.510;11.934;2022-11-18T01:10:46;98957.00;;;5.20;100.00
18533;BME280;9396;51.510;11.934;2022-11-18T01:13:16;98941.59;;;5.33;100.00
18533;BME280;9396;51.510;11.934;2022-11-18T01:15:47;98953.59;;;5.28;100.00
18533;BME280;9396;51.510;11.934;2022-11-18T01:18:14;98954.31;;;5.38;100.00
18533;BME280;9396;51.510;11.934;2022-11-18T01:20:42;98952.59;;;5.29;100.00
18533;BME280;9396;51.510;11.934;2022-11-18T01:23:08;98957.78;;;5.13;100.00
18533;BME280;9396;51.510;11.934;2022-11-18T01:25:36;98957.00;;;5.20;100.00
18533;BME280;9396;51.510;11.934;2022-11-18T01:28:03;98955.56;;;5.26;100.00
18533;BME280;9396;51.510;11.934;2022-11-18T01:30:33;98964.75;;;5.22;100.00
18533;BME280;9396;51.510;11.934;2022-11-18T01:33:00;98952.00;;;5.09;100.00
18533;BME280;9396;51.510;11.934;2022-11-18T01:35:27;98951.53;;;5.14;100.00
18533;BME280;9396;51.510;11.934;2022-11-18T01:37:53;98948.44;;;5.18;100.00
18533;BME280;9396;51.510;11.934;2022-11-18T01:40:20;98947.22;;;5.13;100.00
18533;BME280;9396;51.510;11.934;2022-11-18T01:42:46;98950.03;;;5.37;100.00
18533;BME280;9396;51.510;11.934;2022-11-18T01:45:24;98945.38;;;5.31;100.00
18533;BME280;9396;51.510;11.934;2022-11-18T01:47:56;98940.25;;;5.55;100.00
18533;BME280;9396;51.510;11.934;2022-11-18T01:50:26;98948.91;;;5.14;100.00
18533;BME280;9396;51.510;11.934;2022-11-18T01:52:56;98944.00;;;5.19;100.00
18533;BME280;9396;51.510;11.934;2022-11-18T01:55:28;98943.81;;;5.20;100.00
18533;BME280;9396;51.510;11.934;2022-11-18T01:58:01;98944.66;;;5.21;100.00
18533;BME280;9396;51.510;11.934;2022-11-18T02:00:28;98943.16;;;5.18;100.00
18533;BME280;9396;51.510;11.934;2022-11-18T02:02:57;98940.50;;;5.44;100.00
18533;BME280;9396;51.510;11.934;2022-11-18T02:05:27;98952.00;;;5.35;100.00
18533;BME280;9396;51.510;11.934;2022-11-18T02:07:55;98953.44;;;5.55;100.00
18533;BME280;9396;51.510;11.934;2022-11-18T02:10:23;98947.81;;;5.58;100.00
18533;BME280;9396;51.510;11.934;2022-11-18T02:12:51;98943.34;;;5.84;100.00
18533;BME280;9396;51.510;11.934;2022-11-18T02:15:22;98945.72;;;6.03;100.00
18533;BME280;9396;51.510;11.934;2022-11-18T02:17:58;98953.75;;;5.94;100.00
18533;BME280;9396;51.510;11.934;2022-11-18T02:20:34;98960.44;;;5.46;100.00
18533;BME280;9396;51.510;11.934;2022-11-18T02:23:25;98964.06;;;5.45;100.00
18533;BME280;9396;51.510;11.934;2022-11-18T02:26:09;98951.50;;;5.39;100.00
18533;BME280;9396;51.510;11.934;2022-11-18T02:28:56;98947.47;;;5.53;100.00
18533;BME280;9396;51.510;11.934;2022-11-18T02:31:30;98945.03;;;5.26;100.00
18533;BME280;9396;51.510;11.934;2022-11-18T02:34:04;98950.03;;;5.37;100.00
18533;BME280;9396;51.510;11.934;2022-11-18T02:36:39;98952.25;;;4.98;100.00
18533;BME280;9396;51.510;11.934;2022-11-18T02:39:11;98955.22;;;4.78;100.00
18533;BME280;9396;51.510;11.934;2022-11-18T02:41:41;98956.03;;;4.96;100.00
18533;BME280;9396;51.510;11.934;2022-11-18T02:44:14;98952.25;;;5.24;100.00
18533;BME280;9396;51.510;11.934;2022-11-18T02:46:43;98957.31;;;5.17;100.00
18533;BME280;9396;51.510;11.934;2022-11-18T02:49:17;98964.34;;;5.09;100.00
18533;BME280;9396;51.510;11.934;2022-11-18T02:51:46;98959.28;;;5.15;100.00
18533;BME280;9396;51.510;11.934;2022-11-18T02:54:14;98961.31;;;5.21;100.00
18533;BME280;9396;51.510;11.934;2022-11-18T02:56:44;98964.56;;;5.15;100.00
18533;BME280;9396;51.510;11.934;2022-11-18T02:59:16;98961.03;;;5.07;100.00
18533;BME280;9396;51.510;11.934;2022-11-18T03:01:43;98963.63;;;5.24;100.00
18533;BME280;9396;51.510;11.934;2022-11-18T03:04:10;98961.59;;;5.44;100.00
18533;BME280;9396;51.510;11.934;2022-11-18T03:06:39;98962.13;;;5.47;100.00
18533;BME280;9396;51.510;11.934;2022-11-18T03:09:10;98963.63;;;5.24;100.00
18533;BME280;9396;51.510;11.934;2022-11-18T03:11:44;98967.75;;;5.27;100.00
18533;BME280;9396;51.510;11.934;2022-11-18T03:14:21;98979.88;;;5.37;100.00
18533;BME280;9396;51.510;11.934;2022-11-18T03:16:57;98974.72;;;5.36;100.00
18533;BME280;9396;51.510;11.934;2022-11-18T03:19:31;98974.53;;;5.29;100.00
18533;BME280;9396;51.510;11.934;2022-11-18T03:22:08;98985.63;;;5.15;100.00
18533;BME280;9396;51.510;11.934;2022-11-18T03:24:39;98998.53;;;5.01;100.00
18533;BME280;9396;51.510;11.934;2022-11-18T03:27:11;98994.81;;;5.11;100.00
18533;BME280;9396;51.510;11.934;2022-11-18T03:29:44;98999.41;;;4.84;100.00
18533;BME280;9396;51.510;11.934;2022-11-18T03:32:17;99003.22;;;5.07;100.00
18533;BME280;9396;51.510;11.934;2022-11-18T03:34:46;99013.31;;;4.94;100.00
18533;BME280;9396;51.510;11.934;2022-11-18T03:37:17;99017.66;;;5.03;100.00
18533;BME280;9396;51.510;11.934;2022-11-18T03:39:50;99017.81;;;5.27;100.00
18533;BME280;9396;51.510;11.934;2022-11-18T03:42:22;99018.97;;;5.50;100.00
18533;BME280;9396;51.510;11.934;2022-11-18T03:44:59;99026.63;;;4.92;100.00
18533;BME280;9396;51.510;11.934;2022-11-18T03:47:29;99023.53;;;4.79;100.00
18533;BME280;9396;51.510;11.934;2022-11-18T03:49:59;99023.78;;;4.86;100.00
18533;BME280;9396;51.510;11.934;2022-11-18T03:52:30;99031.09;;;4.74;100.00
18533;BME280;9396;51.510;11.934;2022-11-18T03:55:03;99038.59;;;4.87;100.00
18533;BME280;9396;51.510;11.934;2022-11-18T03:57:34;99038.81;;;4.93;100.00
18533;BME280;9396;51.510;11.934;2022-11-18T04:00:08;99041.91;;;4.89;100.00
18533;BME280;9396;51.510;11.934;2022-11-18T04:02:36;99041.19;;;4.79;100.00
18533;BME280;9396;51.510;11.934;2022-11-18T04:05:05;99053.03;;;5.00;100.00
18533;BME280;9396;51.510;11.934;2022-11-18T04:07:38;99038.16;;;5.09;100.00
18533;BME280;9396;51.510;11.934;2022-11-18T04:10:10;99057.13;;;5.38;100.00
18533;BME280;9396;51.510;11.934;2022-11-18T04:12:42;99060.59;;;5.38;100.00
18533;BME280;9396;51.510;11.934;2022-11-18T04:15:10;99059.31;;;5.42;100.00
18533;BME280;9396;51.510;11.934;2022-11-18T04:17:40;99064.63;;;5.51;100.00
18533;BME280;9396;51.510;11.934;2022-11-18T04:20:11;99059.63;;;5.65;100.00
18533;BME280;9396;51.510;11.934;2022-11-18T04:22:38;99064.75;;;5.41;100.00
18533;BME280;9396;51.510;11.934;2022-11-18T04:25:05;99060.91;;;5.35;100.00
18533;BME280;9396;51.510;11.934;2022-11-18T04:27:32;99064.56;;;4.82;100.00
18533;BME280;9396;51.510;11.934;2022-11-18T04:29:59;99059.69;;;4.69;100.00
18533;BME280;9396;51.510;11.934;2022-11-18T04:32:27;99064.03;;;4.78;100.00
18533;BME280;9396;51.510;11.934;2022-11-18T04:34:53;99072.94;;;4.95;100.00
18533;BME280;9396;51.510;11.934;2022-11-18T04:37:20;99068.47;;;4.78;100.00
18533;BME280;9396;51.510;11.934;2022-11-18T04:39:47;99073.97;;;4.67;100.00
18533;BME280;9396;51.510;11.934;2022-11-18T04:42:14;99071.09;;;4.78;100.00
18533;BME280;9396;51.510;11.934;2022-11-18T04:44:40;99066.75;;;4.69;100.00
18533;BME280;9396;51.510;11.934;2022-11-18T04:47:07;99075.63;;;4.68;100.00
18533;BME280;9396;51.510;11.934;2022-11-18T04:49:35;99086.84;;;4.87;100.00
18533;BME280;9396;51.510;11.934;2022-11-18T04:52:02;99077.22;;;4.96;100.00
18533;BME280;9396;51.510;11.934;2022-11-18T04:54:29;99084.59;;;4.92;100.00
18533;BME280;9396;51.510;11.934;2022-11-18T04:56:56;99085.63;;;4.64;100.00
18533;BME280;9396;51.510;11.934;2022-11-18T04:59:24;99080.78;;;4.60;100.00
18533;BME280;9396;51.510;11.934;2022-11-18T05:01:52;99093.28;;;4.58;100.00
18533;BME280;9396;51.510;11.934;2022-11-18T05:04:20;99084.78;;;4.64;100.00
18533;BME280;9396;51.510;11.934;2022-11-18T05:06:49;99089.66;;;4.41;100.00
18533;BME280;9396;51.510;11.934;2022-11-18T05:09:16;99094.94;;;4.59;100.00
18533;BME280;9396;51.510;11.934;2022-11-18T05:11:43;99094.81;;;4.60;100.00
18533;BME280;9396;51.510;11.934;2022-11-18T05:14:27;99095.84;;;4.67;100.00
18533;BME280;9396;51.510;11.934;2022-11-18T05:16:56;99090.97;;;4.90;100.00
18533;BME280;9396;51.510;11.934;2022-11-18T05:19:23;99095.50;;;4.80;100.00
18533;BME280;9396;51.510;11.934;2022-11-18T05:21:52;99096.13;;;5.09;100.00
18533;BME280;9396;51.510;11.934;2022-11-18T05:24:19;99101.75;;;4.96;100.00
18533;BME280;9396;51.510;11.934;2022-11-18T05:26:48;99103.44;;;4.53;100.00
18533;BME280;9396;51.510;11.934;2022-11-18T05:29:16;99105.34;;;4.95;100.00
18533;BME280;9396;51.510;11.934;2022-11-18T05:31:43;99107.06;;;4.52;100.00
18533;BME280;9396;51.510;11.934;2022-11-18T05:34:10;99112.59;;;4.49;100.00
18533;BME280;9396;51.510;11.934;2022-11-18T05:36:37;99106.94;;;4.71;100.00
18533;BME280;9396;51.510;11.934;2022-11-18T05:39:05;99122.47;;;4.47;100.00
18533;BME280;9396;51.510;11.934;2022-11-18T05:41:32;99127.84;;;4.45;100.00
18533;BME280;9396;51.510;11.934;2022-11-18T05:44:16;99131.81;;;4.31;100.00
18533;BME280;9396;51.510;11.934;2022-11-18T05:46:43;99129.81;;;4.16;100.00
18533;BME280;9396;51.510;11.934;2022-11-18T05:49:09;99130.69;;;4.34;100.00
18533;BME280;9396;51.510;11.934;2022-11-18T05:51:36;99138.09;;;4.21;100.00
18533;BME280;9396;51.510;11.934;2022-11-18T05:54:06;99134.63;;;4.48;100.00
18533;BME280;9396;51.510;11.934;2022-11-18T05:56:35;99143.91;;;4.52;100.00
18533;BME280;9396;51.510;11.934;2022-11-18T05:59:02;99145.09;;;4.40;100.00
18533;BME280;9396;51.510;11.934;2022-11-18T06:01:31;99142.19;;;4.60;100.00
18533;BME280;9396;51.510;11.934;2022-11-18T06:04:01;99152.09;;;4.49;100.00
18533;BME280;9396;51.510;11.934;2022-11-18T06:06:30;99154.25;;;4.35;100.00
18533;BME280;9396;51.510;11.934;2022-11-18T06:09:00;99154.72;;;4.49;100.00
18533;BME280;9396;51.510;11.934;2022-11-18T06:11:30;99158.13;;;4.31;100.00
18533;BME280;9396;51.510;11.934;2022-11-18T06:14:02;99165.94;;;4.23;100.00
18533;BME280;9396;51.510;11.934;2022-11-18T06:16:31;99167.00;;;4.30;100.00
18533;BME280;9396;51.510;11.934;2022-11-18T06:19:00;99170.94;;;4.54;100.00
18533;BME280;9396;51.510;11.934;2022-11-18T06:21:29;99168.97;;;4.19;100.00
18533;BME280;9396;51.510;11.934;2022-11-18T06:23:55;99169.44;;;4.14;100.00
18533;BME280;9396;51.510;11.934;2022-11-18T06:26:22;99173.97;;;4.49;100.00
18533;BME280;9396;51.510;11.934;2022-11-18T06:28:50;99173.88;;;4.41;100.00
18533;BME280;9396;51.510;11.934;2022-11-18T06:31:17;99172.34;;;4.48;100.00
18533;BME280;9396;51.510;11.934;2022-11-18T06:33:43;99175.03;;;4.29;100.00
18533;BME280;9396;51.510;11.934;2022-11-18T06:36:10;99179.81;;;4.06;100.00
18533;BME280;9396;51.510;11.934;2022-11-18T06:38:37;99180.13;;;4.03;100.00
18533;BME280;9396;51.510;11.934;2022-11-18T06:41:03;99193.81;;;4.07;100.00
18533;BME280;9396;51.510;11.934;2022-11-18T06:43:30;99189.16;;;4.38;100.00
18533;BME280;9396;51.510;11.934;2022-11-18T06:46:10;99193.81;;;4.44;100.00
18533;BME280;9396;51.510;11.934;2022-11-18T06:48:55;99199.75;;;4.09;100.00
18533;BME280;9396;51.510;11.934;2022-11-18T06:51:22;99213.06;;;3.98;100.00
18533;BME280;9396;51.510;11.934;2022-11-18T06:53:49;99219.19;;;3.79;100.00
18533;BME280;9396;51.510;11.934;2022-11-18T06:56:17;99222.50;;;3.91;100.00
18533;BME280;9396;51.510;11.934;2022-11-18T06:58:44;99221.94;;;3.97;100.00
18533;BME280;9396;51.510;11.934;2022-11-18T07:01:14;99232.03;;;4.01;100.00
18533;BME280;9396;51.510;11.934;2022-11-18T07:03:43;99230.91;;;4.13;100.00
18533;BME280;9396;51.510;11.934;2022-11-18T07:06:11;99234.38;;;4.14;100.00
18533;BME280;9396;51.510;11.934;2022-11-18T07:08:39;99232.50;;;4.33;100.00
18533;BME280;9396;51.510;11.934;2022-11-18T07:11:08;99233.75;;;4.29;100.00
18533;BME280;9396;51.510;11.934;2022-11-18T07:13:35;99240.06;;;4.00;100.00
18533;BME280;9396;51.510;11.934;2022-11-18T07:16:03;99235.16;;;4.33;100.00
18533;BME280;9396;51.510;11.934;2022-11-18T07:18:33;99242.56;;;4.48;100.00
18533;BME280;9396;51.510;11.934;2022-11-18T07:21:01;99245.34;;;4.46;100.00
18533;BME280;9396;51.510;11.934;2022-11-18T07:23:29;99248.31;;;4.33;100.00
18533;BME280;9396;51.510;11.934;2022-11-18T07:25:56;99257.38;;;3.93;100.00
18533;BME280;9396;51.510;11.934;2022-11-18T07:28:23;99258.19;;;4.12;100.00
18533;BME280;9396;51.510;11.934;2022-11-18T07:30:50;99261.06;;;4.19;100.00
18533;BME280;9396;51.510;11.934;2022-11-18T07:33:16;99265.50;;;4.18;100.00
18533;BME280;9396;51.510;11.934;2022-11-18T07:35:45;99263.41;;;4.22;100.00
18533;BME280;9396;51.510;11.934;2022-11-18T07:38:11;99267.97;;;4.29;100.00
18533;BME280;9396;51.510;11.934;2022-11-18T07:40:38;99266.19;;;4.30;100.00
18533;BME280;9396;51.510;11.934;2022-11-18T07:43:04;99270.75;;;4.18;100.00
18533;BME280;9396;51.510;11.934;2022-11-18T07:45:31;99270.16;;;4.44;100.00
18533;BME280;9396;51.510;11.934;2022-11-18T07:47:58;99280.88;;;4.32;100.00
18533;BME280;9396;51.510;11.934;2022-11-18T07:50:25;99274.66;;;4.14;100.00
18533;BME280;9396;51.510;11.934;2022-11-18T07:52:55;99283.41;;;4.05;100.00
18533;BME280;9396;51.510;11.934;2022-11-18T07:55:22;99291.16;;;4.16;100.00
18533;BME280;9396;51.510;11.934;2022-11-18T07:57:48;99289.22;;;3.71;100.00
18533;BME280;9396;51.510;11.934;2022-11-18T08:00:16;99296.13;;;3.62;100.00
18533;BME280;9396;51.510;11.934;2022-11-18T08:02:43;99290.88;;;3.81;100.00
18533;BME280;9396;51.510;11.934;2022-11-18T08:05:10;99290.88;;;3.91;100.00
18533;BME280;9396;51.510;11.934;2022-11-18T08:07:36;99293.38;;;3.83;100.00
18533;BME280;9396;51.510;11.934;2022-11-18T08:10:05;99306.66;;;3.81;100.00
18533;BME280;9396;51.510;11.934;2022-11-18T08:12:32;99312.06;;;3.61;100.00
18533;BME280;9396;51.510;11.934;2022-11-18T08:14:58;99309.44;;;3.61;100.00
18533;BME280;9396;51.510;11.934;2022-11-18T08:17:25;99307.63;;;3.61;100.00
18533;BME280;9396;51.510;11.934;2022-11-18T08:19:52;99311.91;;;3.81;100.00
18533;BME280;9396;51.510;11.934;2022-11-18T08:22:18;99315.38;;;3.72;100.00
18533;BME280;9396;51.510;11.934;2022-11-18T08:24:45;99313.13;;;3.39;100.00
18533;BME280;9396;51.510;11.934;2022-11-18T08:27:14;99316.97;;;3.35;100.00
18533;BME280;9396;51.510;11.934;2022-11-18T08:29:40;99326.28;;;3.49;100.00
18533;BME280;9396;51.510;11.934;2022-11-18T08:32:07;99330.13;;;3.35;100.00
18533;BME280;9396;51.510;11.934;2022-11-18T08:34:33;99333.75;;;3.53;100.00
18533;BME280;9396;51.510;11.934;2022-11-18T08:37:00;99338.34;;;3.70;100.00
18533;BME280;9396;51.510;11.934;2022-11-18T08:39:27;99341.81;;;3.61;100.00
18533;BME280;9396;51.510;11.934;2022-11-18T08:41:53;99351.16;;;3.35;100.00
18533;BME280;9396;51.510;11.934;2022-11-18T08:44:24;99346.97;;;3.23;100.00
18533;BME280;9396;51.510;11.934;2022-11-18T08:46:51;99348.66;;;3.34;100.00
18533;BME280;9396;51.510;11.934;2022-11-18T08:49:18;99363.78;;;3.11;100.00
18533;BME280;9396;51.510;11.934;2022-11-18T08:51:44;99366.19;;;3.23;100.00
18533;BME280;9396;51.510;11.934;2022-11-18T08:54:11;99372.25;;;3.14;100.00
18533;BME280;9396;51.510;11.934;2022-11-18T08:56:37;99365.44;;;2.82;100.00
18533;BME280;9396;51.510;11.934;2022-11-18T08:59:04;99375.25;;;3.10;100.00
18533;BME280;9396;51.510;11.934;2022-11-18T09:01:32;99375.09;;;3.02;100.00
18533;BME280;9396;51.510;11.934;2022-11-18T09:03:59;99376.28;;;3.18;100.00
18533;BME280;9396;51.510;11.934;2022-11-18T09:06:25;99381.41;;;3.20;100.00
18533;BME280;9396;51.510;11.934;2022-11-18T09:08:52;99377.22;;;2.87;100.00
18533;BME280;9396;51.510;11.934;2022-11-18T09:11:21;99374.06;;;3.23;100.00
18533;BME280;9396;51.510;11.934;2022-11-18T09:13:51;99382.66;;;3.25;100.00
18533;BME280;9396;51.510;11.934;2022-11-18T09:16:18;99388.84;;;3.15;100.00
18533;BME280;9396;51.510;11.934;2022-11-18T09:18:49;99377.63;;;2.83;100.00
18533;BME280;9396;51.510;11.934;2022-11-18T09:21:16;99393.63;;;3.10;100.00
18533;BME280;9396;51.510;11.934;2022-11-18T09:23:43;99389.34;;;3.39;100.00
18533;BME280;9396;51.510;11.934;2022-11-18T09:26:11;99401.97;;;3.15;100.00
18533;BME280;9396;51.510;11.934;2022-11-18T09:28:38;99413.00;;;3.09;100.00
18533;BME280;9396;51.510;11.934;2022-11-18T09:31:06;99409.94;;;3.04;100.00
18533;BME280;9396;51.510;11.934;2022-11-18T09:33:33;99418.88;;;2.92;100.00
18533;BME280;9396;51.510;11.934;2022-11-18T09:36:01;99419.03;;;3.00;100.00
18533;BME280;9396;51.510;11.934;2022-11-18T09:38:28;99431.44;;;2.47;100.00
18533;BME280;9396;51.510;11.934;2022-11-18T09:41:01;99429.22;;;2.73;100.00
18533;BME280;9396;51.510;11.934;2022-11-18T09:43:37;99424.19;;;2.81;100.00
18533;BME280;9396;51.510;11.934;2022-11-18T09:46:20;99431.44;;;2.88;100.00
18533;BME280;9396;51.510;11.934;2022-11-18T09:48:48;99429.53;;;3.00;100.00
18533;BME280;9396;51.510;11.934;2022-11-18T09:51:38;99435.06;;;2.56;100.00
18533;BME280;9396;51.510;11.934;2022-11-18T09:54:08;99436.63;;;2.79;100.00
18533;BME280;9396;51.510;11.934;2022-11-18T09:56:37;99437.47;;;2.48;100.00
18533;BME280;9396;51.510;11.934;2022-11-18T09:59:04;99432.94;;;2.50;100.00
18533;BME280;9396;51.510;11.934;2022-11-18T10:01:31;99443.44;;;2.50;100.00
18533;BME280;9396;51.510;11.934;2022-11-18T10:03:57;99447.63;;;2.73;100.00
18533;BME280;9396;51.510;11.934;2022-11-18T10:06:27;99450.56;;;2.59;100.00
18533;BME280;9396;51.510;11.934;2022-11-18T10:09:03;99447.28;;;2.87;100.00
18533;BME280;9396;51.510;11.934;2022-11-18T10:11:37;99447.56;;;2.63;100.00
18533;BME280;9396;51.510;11.934;2022-11-18T10:14:18;99456.06;;;2.56;100.00
18533;BME280;9396;51.510;11.934;2022-11-18T10:16:54;99461.50;;;2.64;100.00
18533;BME280;9396;51.510;11.934;2022-11-18T10:19:28;99455.88;;;2.05;100.00
18533;BME280;9396;51.510;11.934;2022-11-18T10:22:16;99459.75;;;2.33;100.00
18533;BME280;9396;51.510;11.934;2022-11-18T10:24:49;99467.28;;;2.58;100.00
18533;BME280;9396;51.510;11.934;2022-11-18T10:27:17;99465.03;;;2.22;100.00
18533;BME280;9396;51.510;11.934;2022-11-18T10:29:48;99468.66;;;2.09;100.00
18533;BME280;9396;51.510;11.934;2022-11-18T10:32:18;99414.50;;;1.77;100.00
18533;BME280;9396;51.510;11.934;2022-11-18T10:34:47;99450.31;;;1.98;100.00
18533;BME280;9396;51.510;11.934;2022-11-18T10:37:22;99488.91;;;2.18;100.00
18533;BME280;9396;51.510;11.934;2022-11-18T10:39:51;99493.91;;;1.99;100.00
18533;BME280;9396;51.510;11.934;2022-11-18T10:42:24;99496.72;;;1.87;100.00
18533;BME280;9396;51.510;11.934;2022-11-18T10:44:52;99498.63;;;1.74;100.00
18533;BME280;9396;51.510;11.934;2022-11-18T10:47:29;99504.31;;;1.90;100.00
18533;BME280;9396;51.510;11.934;2022-11-18T10:49:58;99508.97;;;1.86;100.00
18533;BME280;9396;51.510;11.934;2022-11-18T10:52:25;99504.19;;;2.02;100.00
18533;BME280;9396;51.510;11.934;2022-11-18T10:55:17;99508.59;;;2.02;100.00
18533;BME280;9396;51.510;11.934;2022-11-18T10:57:45;99507.72;;;2.24;100.00
18533;BME280;9396;51.510;11.934;2022-11-18T11:00:39;99509.31;;;2.04;100.00
18533;BME280;9396;51.510;11.934;2022-11-18T11:03:37;99522.03;;;2.19;100.00
18533;BME280;9396;51.510;11.934;2022-11-18T11:06:18;99518.53;;;2.30;100.00
18533;BME280;9396;51.510;11.934;2022-11-18T11:08:48;99530.88;;;1.96;100.00
18533;BME280;9396;51.510;11.934;2022-11-18T11:11:24;99535.31;;;1.85;100.00
18533;BME280;9396;51.510;11.934;2022-11-18T11:13:56;99533.75;;;2.04;100.00
18533;BME280;9396;51.510;11.934;2022-11-18T11:16:26;99536.84;;;1.87;100.00
18533;BME280;9396;51.510;11.934;2022-11-18T11:18:58;99539.59;;;2.08;100.00
18533;BME280;9396;51.510;11.934;2022-11-18T11:21:27;99543.75;;;1.99;100.00
18533;BME280;9396;51.510;11.934;2022-11-18T11:23:55;99543.16;;;2.07;100.00
18533;BME280;9396;51.510;11.934;2022-11-18T11:26:28;99547.59;;;1.95;100.00
18533;BME280;9396;51.510;11.934;2022-11-18T11:29:01;99548.50;;;2.05;100.00
18533;BME280;9396;51.510;11.934;2022-11-18T11:31:38;99541.16;;;1.66;100.00
18533;BME280;9396;51.510;11.934;2022-11-18T11:34:16;99553.88;;;1.82;100.00
18533;BME280;9396;51.510;11.934;2022-11-18T11:36:50;99541.63;;;1.93;100.00
18533;BME280;9396;51.510;11.934;2022-11-18T11:39:39;99541.88;;;1.90;100.00
18533;BME280;9396;51.510;11.934;2022-11-18T11:42:18;99547.06;;;2.12;100.00
18533;BME280;9396;51.510;11.934;2022-11-18T11:44:57;99549.59;;;2.57;100.00
18533;BME280;9396;51.510;11.934;2022-11-18T11:47:34;99556.75;;;2.86;100.00
18533;BME280;9396;51.510;11.934;2022-11-18T11:50:18;99558.03;;;2.60;100.00
18533;BME280;9396;51.510;11.934;2022-11-18T11:52:58;99556.75;;;2.55;100.00
18533;BME280;9396;51.510;11.934;2022-11-18T11:55:32;99565.72;;;2.52;100.00
18533;BME280;9396;51.510;11.934;2022-11-18T11:58:16;99564.84;;;2.63;100.00
18533;BME280;9396;51.510;11.934;2022-11-18T12:00:48;99562.94;;;2.65;100.00
18533;BME280;9396;51.510;11.934;2022-11-18T12:03:38;99575.38;;;2.52;100.00
18533;BME280;9396;51.510;11.934;2022-11-18T12:06:08;99580.69;;;2.30;100.00
18533;BME280;9396;51.510;11.934;2022-11-18T12:08:36;99581.28;;;2.22;100.00
18533;BME280;9396;51.510;11.934;2022-11-18T12:11:09;99578.28;;;2.15;100.00
18533;BME280;9396;51.510;11.934;2022-11-18T12:13:45;99573.75;;;2.29;100.00
18533;BME280;9396;51.510;11.934;2022-11-18T12:16:26;99582.47;;;1.96;100.00
18533;BME280;9396;51.510;11.934;2022-11-18T12:18:58;99586.91;;;1.95;100.00
18533;BME280;9396;51.510;11.934;2022-11-18T12:21:58;99583.56;;;1.93;100.00
18533;BME280;9396;51.510;11.934;2022-11-18T12:24:30;99579.25;;;2.03;100.00
18533;BME280;9396;51.510;11.934;2022-11-18T12:27:00;99580.44;;;2.10;100.00
18533;BME280;9396;51.510;11.934;2022-11-18T12:29:35;99579.13;;;2.27;100.00
18533;BME280;9396;51.510;11.934;2022-11-18T12:32:33;99591.22;;;2.61;100.00
18533;BME280;9396;51.510;11.934;2022-11-18T12:35:25;99584.13;;;2.30;100.00
18533;BME280;9396;51.510;11.934;2022-11-18T12:38:01;99582.00;;;2.24;100.00
18533;BME280;9396;51.510;11.934;2022-11-18T12:40:40;99587.84;;;1.94;100.00
18533;BME280;9396;51.510;11.934;2022-11-18T12:46:48;99606.03;;;1.41;100.00
18533;BME280;9396;51.510;11.934;2022-11-18T12:52:49;99607.34;;;1.46;100.00
18533;BME280;9396;51.510;11.934;2022-11-18T12:55:20;99613.94;;;1.63;100.00
18533;BME280;9396;51.510;11.934;2022-11-18T12:57:47;99621.69;;;1.64;100.00
18533;BME280;9396;51.510;11.934;2022-11-18T13:00:16;99622.63;;;1.63;100.00
18533;BME280;9396;51.510;11.934;2022-11-18T13:02:51;99640.38;;;1.25;100.00
18533;BME280;9396;51.510;11.934;2022-11-18T13:05:20;99629.28;;;1.45;100.00
18533;BME280;9396;51.510;11.934;2022-11-18T13:07:51;99636.41;;;1.43;100.00
18533;BME280;9396;51.510;11.934;2022-11-18T13:10:38;99639.25;;;1.40;100.00
18533;BME280;9396;51.510;11.934;2022-11-18T13:13:18;99645.72;;;1.47;100.00
18533;BME280;9396;51.510;11.934;2022-11-18T13:15:45;99643.25;;;1.79;100.00
18533;BME280;9396;51.510;11.934;2022-11-18T13:18:31;99645.75;;;1.58;100.00
18533;BME280;9396;51.510;11.934;2022-11-18T13:20:59;99648.59;;;1.66;100.00
18533;BME280;9396;51.510;11.934;2022-11-18T13:23:46;99653.66;;;1.35;100.00
18533;BME280;9396;51.510;11.934;2022-11-18T13:26:20;99653.56;;;1.47;100.00